createdAt,value
2023-08-08T00:02:22.143Z,92.04
2023-08-08T00:05:10.877Z,91.70
2023-08-08T00:07:59.095Z,91.77
2023-08-08T00:10:47.194Z,91.72
2023-08-08T00:13:35.361Z,91.67
2023-08-08T00:16:23.543Z,91.70
2023-08-08T00:19:14.747Z,91.74
2023-08-08T00:22:02.905Z,91.85
2023-08-08T00:24:51.076Z,91.43
2023-08-08T00:27:43.431Z,91.40
2023-08-08T00:30:33.239Z,91.28
2023-08-08T00:33:21.404Z,91.34
2023-08-08T00:36:09.732Z,91.27
2023-08-08T00:38:57.887Z,91.49
2023-08-08T00:41:46.134Z,91.28
2023-08-08T00:44:33.953Z,91.80
2023-08-08T00:47:22.165Z,91.88
2023-08-08T00:50:12.639Z,91.93
2023-08-08T00:53:02.305Z,91.72
2023-08-08T00:55:50.780Z,91.43
2023-08-08T00:58:39.007Z,91.55
2023-08-08T01:01:26.804Z,91.29
2023-08-08T01:04:15.578Z,91.55
2023-08-08T01:07:12.708Z,91.42
2023-08-08T01:10:08.571Z,91.47
2023-08-08T01:13:05.950Z,91.37
2023-08-08T01:15:57.641Z,91.41
2023-08-08T01:18:50.266Z,91.46
2023-08-08T01:21:42.408Z,91.87
2023-08-08T01:24:34.238Z,91.47
2023-08-08T01:27:22.598Z,91.63
2023-08-08T01:30:12.129Z,91.91
2023-08-08T01:33:00.225Z,91.81
2023-08-08T01:36:04.879Z,91.97
2023-08-08T01:38:56.859Z,91.93
2023-08-08T01:41:48.451Z,92.19
2023-08-08T01:44:37.345Z,92.38
2023-08-08T01:47:25.545Z,92.37
2023-08-08T01:50:13.615Z,92.42
2023-08-08T01:53:03.040Z,92.34
2023-08-08T01:55:53.609Z,92.53
2023-08-08T01:58:41.670Z,92.84
2023-08-08T02:01:29.839Z,92.64
2023-08-08T02:03:58.030Z,92.64
2023-08-08T02:06:46.193Z,92.54
2023-08-08T02:09:34.337Z,92.72
2023-08-08T02:12:22.448Z,92.52
2023-08-08T02:15:10.940Z,92.68
2023-08-08T02:17:59.078Z,92.84
2023-08-08T02:20:52.832Z,92.67
2023-08-08T02:23:41.009Z,92.66
2023-08-08T02:26:28.743Z,92.64
2023-08-08T02:29:16.910Z,92.41
2023-08-08T02:32:05.433Z,92.81
2023-08-08T02:34:53.526Z,92.76
2023-08-08T02:37:41.722Z,92.77
2023-08-08T02:40:29.826Z,92.79
2023-08-08T02:43:17.965Z,92.63
2023-08-08T02:46:06.137Z,92.62
2023-08-08T02:48:54.279Z,92.82
2023-08-08T02:51:42.391Z,92.63
2023-08-08T02:54:30.598Z,92.70
2023-08-08T02:57:19.149Z,92.70
2023-08-08T03:00:09.464Z,92.65
2023-08-08T03:02:57.980Z,92.75
2023-08-08T03:05:47.998Z,92.73
2023-08-08T03:08:36.244Z,92.64
2023-08-08T03:11:24.081Z,92.83
2023-08-08T03:14:12.370Z,92.84
2023-08-08T03:17:01.523Z,93.03
2023-08-08T03:19:48.294Z,92.86
2023-08-08T03:22:36.625Z,93.02
2023-08-08T03:25:24.276Z,92.97
2023-08-08T03:28:12.537Z,92.91
2023-08-08T03:31:00.289Z,93.04
2023-08-08T03:33:49.209Z,93.01
2023-08-08T03:36:37.233Z,93.14
2023-08-08T03:39:25.576Z,92.83
2023-08-08T03:42:13.659Z,92.75
2023-08-08T03:45:01.841Z,92.92
2023-08-08T03:47:49.967Z,92.74
2023-08-08T03:50:41.084Z,92.83
2023-08-08T03:53:29.207Z,92.87
2023-08-08T03:56:17.423Z,92.90
2023-08-08T03:59:05.553Z,92.94
2023-08-08T04:01:53.715Z,92.86
2023-08-08T04:04:41.916Z,92.74
2023-08-08T04:07:30.056Z,92.73
2023-08-08T04:10:18.333Z,92.80
2023-08-08T04:13:06.198Z,92.56
2023-08-08T04:15:54.407Z,92.45
2023-08-08T04:18:42.526Z,92.40
2023-08-08T04:21:33.412Z,92.16
2023-08-08T04:24:21.530Z,92.41
2023-08-08T04:27:09.736Z,92.40
2023-08-08T04:29:58.003Z,92.26
2023-08-08T04:32:46.058Z,92.34
2023-08-08T04:35:34.181Z,92.13
2023-08-08T04:38:22.417Z,92.08
2023-08-08T04:41:10.300Z,92.16
2023-08-08T04:43:58.447Z,92.17
2023-08-08T04:46:46.606Z,92.06
2023-08-08T04:49:34.706Z,91.87
2023-08-08T04:52:22.903Z,91.66
2023-08-08T04:55:12.583Z,91.38
2023-08-08T04:58:00.918Z,91.09
2023-08-08T05:00:48.689Z,91.17
2023-08-08T05:03:36.968Z,91.21
2023-08-08T05:06:25.061Z,91.09
2023-08-08T05:09:14.467Z,91.32
2023-08-08T05:12:02.864Z,91.36
2023-08-08T05:14:50.817Z,91.09
2023-08-08T05:17:39.179Z,90.94
2023-08-08T05:20:27.015Z,90.67
2023-08-08T05:23:15.272Z,90.60
2023-08-08T05:26:03.046Z,90.45
2023-08-08T05:28:44.046Z,90.22
2023-08-08T05:31:31.484Z,90.36
2023-08-08T05:34:19.627Z,89.87
2023-08-08T05:37:10.694Z,89.31
2023-08-08T05:39:40.836Z,87.76
2023-08-08T05:42:20.710Z,86.22
2023-08-08T05:45:00.417Z,85.54
2023-08-08T05:47:40.014Z,84.52
2023-08-08T05:50:20.691Z,84.37
2023-08-08T05:53:00.342Z,84.06
2023-08-08T05:55:42.980Z,84.57
2023-08-08T05:58:23.503Z,84.68
2023-08-08T06:01:03.070Z,84.18
2023-08-08T06:03:43.749Z,84.44
2023-08-08T06:06:23.338Z,83.86
2023-08-08T06:09:03.182Z,82.61
2023-08-08T06:11:42.719Z,81.01
2023-08-08T06:14:20.614Z,81.03
2023-08-08T06:16:59.800Z,78.36
2023-08-08T06:19:38.134Z,77.14
2023-08-08T06:22:18.048Z,78.00
2023-08-08T06:24:57.728Z,79.14
2023-08-08T06:27:39.667Z,79.22
2023-08-08T06:30:19.430Z,79.21
2023-08-08T06:32:58.953Z,79.98
2023-08-08T06:35:41.692Z,79.98
2023-08-08T06:38:21.339Z,80.08
2023-08-08T06:41:01.374Z,80.64
2023-08-08T06:43:42.052Z,79.69
2023-08-08T06:46:21.959Z,79.05
2023-08-08T06:49:02.598Z,78.60
2023-08-08T06:51:42.053Z,78.98
2023-08-08T06:54:21.767Z,77.48
2023-08-08T06:57:02.663Z,77.50
2023-08-08T06:59:42.875Z,77.08
2023-08-08T07:02:24.909Z,76.67
2023-08-08T07:04:54.062Z,76.37
2023-08-08T07:07:34.635Z,75.20
2023-08-08T07:10:14.521Z,75.37
2023-08-08T07:12:54.164Z,75.76
2023-08-08T07:15:33.970Z,75.19
2023-08-08T07:18:13.661Z,73.30
2023-08-08T07:21:02.897Z,74.60
2023-08-08T07:23:42.554Z,74.62
2023-08-08T07:26:23.547Z,71.56
2023-08-08T07:29:07.251Z,72.34
2023-08-08T07:31:46.996Z,72.79
2023-08-08T07:34:26.511Z,73.07
2023-08-08T07:37:06.372Z,72.76
2023-08-08T07:39:55.308Z,72.46
2023-08-08T07:42:44.581Z,71.78
2023-08-08T07:45:32.763Z,70.71
2023-08-08T07:48:13.928Z,70.98
2023-08-08T07:50:53.457Z,68.74
2023-08-08T07:53:35.051Z,68.96
2023-08-08T07:56:14.695Z,69.04
2023-08-08T07:58:57.364Z,70.27
2023-08-08T08:01:37.102Z,68.57
2023-08-08T08:04:24.039Z,68.29
2023-08-08T08:07:03.926Z,67.57
2023-08-08T08:09:43.948Z,66.81
2023-08-08T08:12:23.577Z,67.24
2023-08-08T08:15:03.703Z,63.58
2023-08-08T08:17:43.571Z,66.46
2023-08-08T08:20:35.376Z,67.22
2023-08-08T08:23:15.688Z,65.51
2023-08-08T08:25:55.303Z,63.38
2023-08-08T08:28:35.075Z,63.52
2023-08-08T08:31:24.482Z,65.50
2023-08-08T08:34:12.577Z,63.06
2023-08-08T08:36:59.972Z,64.60
2023-08-08T08:39:48.448Z,64.07
2023-08-08T08:42:37.552Z,62.80
2023-08-08T08:45:24.835Z,62.14
2023-08-08T08:48:04.853Z,62.28
2023-08-08T08:50:54.822Z,61.04
2023-08-08T08:53:36.283Z,60.38
2023-08-08T08:56:20.160Z,60.93
2023-08-08T08:58:59.987Z,60.65
2023-08-08T09:01:39.903Z,60.70
2023-08-08T09:04:23.298Z,61.30
2023-08-08T09:07:03.752Z,60.35
2023-08-08T09:09:46.121Z,60.74
2023-08-08T09:12:26.308Z,60.47
2023-08-08T09:15:07.200Z,60.36
2023-08-08T09:17:49.307Z,60.65
2023-08-08T09:20:31.926Z,61.47
2023-08-08T09:23:12.241Z,61.83
2023-08-08T09:25:56.690Z,61.06
2023-08-08T09:28:39.509Z,61.63
2023-08-08T09:31:19.679Z,60.72
2023-08-08T09:34:01.709Z,59.73
2023-08-08T09:36:42.605Z,61.32
2023-08-08T09:39:22.825Z,61.93
2023-08-08T09:42:05.481Z,60.56
2023-08-08T09:44:45.583Z,60.73
2023-08-08T09:47:25.876Z,60.46
2023-08-08T09:50:12.685Z,59.79
2023-08-08T09:52:57.357Z,58.81
2023-08-08T09:55:37.772Z,57.37
2023-08-08T09:58:18.728Z,58.71
2023-08-08T10:00:58.356Z,59.74
2023-08-08T10:03:39.405Z,60.26
2023-08-08T10:06:29.902Z,60.08
2023-08-08T10:09:10.204Z,59.07
2023-08-08T10:11:51.472Z,59.04
2023-08-08T10:14:38.183Z,59.06
2023-08-08T10:17:19.906Z,60.21
2023-08-08T10:20:01.127Z,60.64
2023-08-08T10:22:48.324Z,60.73
2023-08-08T10:25:32.554Z,61.02
2023-08-08T10:30:59.921Z,58.94
2023-08-08T10:33:45.417Z,59.35
2023-08-08T10:36:25.432Z,59.27
2023-08-08T10:39:05.228Z,59.10
2023-08-08T10:41:53.621Z,60.34
2023-08-08T10:44:43.799Z,59.33
2023-08-08T10:47:38.036Z,60.31
2023-08-08T10:50:26.226Z,59.41
2023-08-08T10:53:14.383Z,59.64
2023-08-08T10:56:07.740Z,57.87
2023-08-08T10:58:53.281Z,57.66
2023-08-08T11:01:33.250Z,57.45
2023-08-08T11:04:14.861Z,56.35
2023-08-08T11:06:57.713Z,57.63
2023-08-08T11:09:42.778Z,57.37
2023-08-08T11:12:28.015Z,57.75
2023-08-08T11:15:08.414Z,57.15
2023-08-08T11:17:47.823Z,56.37
2023-08-08T11:20:37.954Z,57.65
2023-08-08T11:23:26.097Z,56.25
2023-08-08T11:29:01.054Z,56.37
2023-08-08T11:31:44.721Z,56.01
2023-08-08T11:34:35.308Z,57.21
2023-08-08T11:37:16.417Z,57.42
2023-08-08T11:39:59.092Z,55.74
2023-08-08T11:42:48.016Z,57.00
2023-08-08T11:45:37.110Z,54.72
2023-08-08T11:48:26.998Z,54.61
2023-08-08T11:51:11.314Z,54.98
2023-08-08T11:54:03.462Z,55.05
2023-08-08T11:56:51.806Z,55.41
2023-08-08T11:59:37.474Z,55.41
2023-08-08T12:02:28.802Z,56.50
2023-08-08T12:05:10.846Z,56.78
2023-08-08T12:07:43.335Z,56.11
2023-08-08T12:10:32.036Z,56.22
2023-08-08T12:13:28.118Z,53.32
2023-08-08T12:15:56.966Z,54.48
2023-08-08T12:18:40.594Z,54.03
2023-08-08T12:21:20.269Z,53.95
2023-08-08T12:23:59.992Z,54.63
2023-08-08T12:26:42.416Z,54.21
2023-08-08T12:29:22.281Z,52.37
2023-08-08T12:32:03.930Z,54.91
2023-08-08T12:34:43.841Z,56.36
2023-08-08T12:37:24.936Z,58.58
2023-08-08T12:40:06.007Z,55.41
2023-08-08T12:42:44.546Z,53.90
2023-08-08T12:45:25.443Z,56.65
2023-08-08T12:48:05.569Z,58.59
2023-08-08T12:50:45.161Z,59.89
2023-08-08T12:53:24.946Z,59.65
2023-08-08T12:56:04.716Z,53.33
2023-08-08T12:58:52.145Z,49.82
2023-08-08T13:01:21.137Z,48.19
2023-08-08T13:04:18.234Z,48.34
2023-08-08T13:06:45.597Z,49.98
2023-08-08T13:09:16.064Z,52.42
2023-08-08T13:12:34.870Z,55.67
2023-08-08T13:15:21.708Z,51.67
2023-08-08T13:18:01.502Z,50.30
2023-08-08T13:20:42.083Z,50.80
2023-08-08T13:23:21.664Z,49.08
2023-08-08T13:26:02.094Z,45.38
2023-08-08T13:28:44.460Z,49.50
2023-08-08T13:31:24.103Z,48.55
2023-08-08T13:34:03.797Z,49.95
2023-08-08T13:36:44.375Z,50.85
2023-08-08T13:42:23.945Z,55.79
2023-08-08T13:45:13.644Z,57.93
2023-08-08T13:47:53.312Z,57.73
2023-08-08T13:50:32.954Z,59.53
2023-08-08T13:53:19.200Z,59.06
2023-08-08T13:56:06.022Z,57.62
2023-08-08T13:58:47.423Z,57.71
2023-08-08T14:01:27.038Z,56.21
2023-08-08T14:04:08.310Z,56.24
2023-08-08T14:06:49.441Z,58.35
2023-08-08T14:09:29.161Z,56.30
2023-08-08T14:12:14.829Z,57.58
2023-08-08T14:14:54.616Z,59.06
2023-08-08T14:17:38.606Z,60.71
2023-08-08T14:20:23.546Z,58.26
2023-08-08T14:23:03.543Z,56.23
2023-08-08T14:26:08.324Z,54.24
2023-08-08T14:28:47.910Z,56.12
2023-08-08T14:31:27.608Z,54.30
2023-08-08T14:34:07.373Z,51.84
2023-08-08T14:36:56.731Z,48.88
2023-08-08T14:39:25.903Z,48.87
2023-08-08T14:42:06.169Z,51.54
2023-08-08T14:44:48.493Z,51.79
2023-08-08T14:47:28.277Z,50.23
2023-08-08T14:50:15.155Z,48.83
2023-08-08T14:52:55.096Z,47.94
2023-08-08T14:55:34.978Z,51.58
2023-08-08T14:58:15.071Z,51.63
2023-08-08T15:00:56.152Z,52.47
2023-08-08T15:03:36.187Z,53.69
2023-08-08T15:06:16.001Z,52.11
2023-08-08T15:09:05.113Z,53.65
2023-08-08T15:11:44.063Z,50.70
2023-08-08T15:14:23.886Z,48.73
2023-08-08T15:17:03.788Z,48.12
2023-08-08T15:19:49.253Z,48.52
2023-08-08T15:22:29.207Z,49.52
2023-08-08T15:25:15.041Z,48.34
2023-08-08T15:27:54.876Z,46.96
2023-08-08T15:30:39.412Z,48.83
2023-08-08T15:33:19.846Z,50.45
2023-08-08T15:35:59.741Z,49.75
2023-08-08T15:38:39.580Z,50.53
2023-08-08T15:41:20.807Z,51.20
2023-08-08T15:44:00.744Z,51.94
2023-08-08T15:46:43.617Z,55.04
2023-08-08T15:49:23.553Z,56.44
2023-08-08T15:52:03.364Z,57.74
2023-08-08T15:54:43.074Z,58.22
2023-08-08T15:57:25.167Z,58.64
2023-08-08T16:00:07.557Z,59.39
2023-08-08T16:02:47.392Z,58.94
2023-08-08T16:05:29.344Z,59.55
2023-08-08T16:08:16.253Z,60.16
2023-08-08T16:10:54.696Z,61.71
2023-08-08T16:13:34.453Z,62.95
2023-08-08T16:16:14.138Z,62.63
2023-08-08T16:18:53.997Z,61.61
2023-08-08T16:21:36.485Z,62.35
2023-08-08T16:24:16.206Z,61.45
2023-08-08T16:26:55.855Z,61.85
2023-08-08T16:29:35.670Z,62.03
2023-08-08T16:32:15.341Z,62.72
2023-08-08T16:34:55.506Z,63.37
2023-08-08T16:37:35.110Z,63.19
2023-08-08T16:40:14.814Z,62.42
2023-08-08T16:42:54.422Z,63.73
2023-08-08T16:45:34.064Z,65.38
2023-08-08T16:48:13.715Z,65.55
2023-08-08T16:50:55.053Z,63.64
2023-08-08T16:53:34.777Z,63.92
2023-08-08T16:56:15.964Z,64.06
2023-08-08T16:58:55.611Z,65.03
2023-08-08T17:01:38.000Z,66.30
2023-08-08T17:04:18.476Z,67.10
2023-08-08T17:07:01.273Z,68.10
2023-08-08T17:09:41.970Z,68.48
2023-08-08T17:12:21.578Z,73.00
2023-08-08T17:15:01.147Z,72.73
2023-08-08T17:17:40.841Z,73.14
2023-08-08T17:20:20.458Z,78.02
2023-08-08T17:23:00.090Z,80.73
2023-08-08T17:25:39.800Z,81.59
2023-08-08T17:28:19.535Z,79.96
2023-08-08T17:31:02.424Z,79.17
2023-08-08T17:33:42.143Z,77.84
2023-08-08T17:36:22.267Z,78.50
2023-08-08T17:39:01.956Z,77.57
2023-08-08T17:41:44.237Z,79.12
2023-08-08T17:44:23.971Z,79.39
2023-08-08T17:47:04.443Z,81.55
2023-08-08T17:49:44.817Z,86.10
2023-08-08T17:52:24.872Z,85.77
2023-08-08T17:55:04.674Z,87.89
2023-08-08T17:57:44.197Z,87.68
2023-08-08T18:00:23.897Z,89.07
2023-08-08T18:03:03.828Z,88.34
2023-08-08T18:05:43.205Z,87.72
2023-08-08T18:08:23.204Z,87.90
2023-08-08T18:11:02.819Z,88.37
2023-08-08T18:13:42.457Z,88.04
2023-08-08T18:16:22.034Z,87.41
2023-08-08T18:19:02.620Z,86.99
2023-08-08T18:21:42.260Z,87.73
2023-08-08T18:24:21.911Z,87.79
2023-08-08T18:27:00.555Z,87.94
2023-08-08T18:29:40.306Z,87.22
2023-08-08T18:32:19.981Z,87.15
2023-08-08T18:34:59.597Z,87.15
2023-08-08T18:37:41.397Z,87.02
2023-08-08T18:40:22.365Z,87.54
2023-08-08T18:43:02.186Z,88.75
2023-08-08T18:45:45.000Z,87.95
2023-08-08T18:48:24.645Z,88.72
2023-08-08T18:51:04.244Z,90.15
2023-08-08T18:53:45.022Z,90.38
2023-08-08T18:56:25.060Z,90.82
2023-08-08T18:59:04.686Z,91.15
2023-08-08T19:01:44.366Z,91.27
2023-08-08T19:04:23.952Z,90.42
2023-08-08T19:07:03.882Z,91.29
2023-08-08T19:09:45.881Z,90.06
2023-08-08T19:12:25.557Z,90.44
2023-08-08T19:15:06.053Z,90.43
2023-08-08T19:17:55.435Z,90.89
2023-08-08T19:20:26.104Z,90.82
2023-08-08T19:23:12.816Z,90.77
2023-08-08T19:25:52.499Z,91.04
2023-08-08T19:28:32.202Z,90.88
2023-08-08T19:31:11.838Z,90.42
2023-08-08T19:34:04.328Z,91.59
2023-08-08T19:36:31.156Z,91.31
2023-08-08T19:39:13.884Z,91.81
2023-08-08T19:41:53.504Z,94.79
2023-08-08T19:44:33.110Z,94.15
2023-08-08T19:47:13.842Z,94.37
2023-08-08T19:49:52.737Z,94.31
2023-08-08T19:52:32.392Z,94.27
2023-08-08T19:55:12.080Z,94.21
2023-08-08T19:58:00.550Z,94.03
2023-08-08T20:00:42.572Z,94.01
2023-08-08T20:03:22.456Z,94.15
2023-08-08T20:06:02.138Z,94.13
2023-08-08T20:08:41.864Z,93.93
2023-08-08T20:11:21.461Z,94.12
2023-08-08T20:14:01.108Z,93.95
2023-08-08T20:16:40.819Z,93.16
2023-08-08T20:19:20.442Z,93.00
2023-08-08T20:22:00.020Z,93.11
2023-08-08T20:24:39.776Z,92.95
2023-08-08T20:27:19.470Z,93.07
2023-08-08T20:29:59.033Z,93.16
2023-08-08T20:32:39.069Z,93.05
2023-08-08T20:35:20.895Z,93.05
2023-08-08T20:38:01.030Z,93.14
2023-08-08T20:40:40.799Z,93.28
2023-08-08T20:43:20.562Z,93.32
2023-08-08T20:46:03.070Z,92.92
2023-08-08T20:48:43.927Z,93.05
2023-08-08T20:51:23.464Z,92.96
2023-08-08T20:54:07.128Z,93.03
2023-08-08T20:56:47.555Z,93.06
2023-08-08T20:59:28.276Z,93.22
2023-08-08T21:02:09.392Z,92.96
2023-08-08T21:04:50.438Z,93.33
2023-08-08T21:07:29.046Z,93.19
2023-08-08T21:10:14.489Z,93.25
2023-08-08T21:12:54.064Z,93.48
2023-08-08T21:15:33.680Z,93.41
2023-08-08T21:18:14.306Z,93.50
2023-08-08T21:20:53.976Z,93.32
2023-08-08T21:23:33.752Z,93.50
2023-08-08T21:26:13.740Z,93.54
2023-08-08T21:28:53.023Z,93.41
2023-08-08T21:31:35.677Z,93.26
2023-08-08T21:34:15.202Z,93.19
2023-08-08T21:36:54.822Z,93.36
2023-08-08T21:39:34.415Z,93.19
2023-08-08T21:42:13.993Z,93.57
2023-08-08T21:44:53.667Z,93.44
2023-08-08T21:47:33.335Z,93.00
2023-08-08T21:50:12.790Z,93.38
2023-08-08T21:52:52.242Z,93.37
2023-08-08T21:55:31.999Z,93.43
2023-08-08T21:58:12.316Z,93.32
2023-08-08T22:00:53.002Z,93.29
2023-08-08T22:03:32.555Z,93.02
2023-08-08T22:06:12.458Z,93.00
2023-08-08T22:08:52.097Z,93.00
2023-08-08T22:11:31.776Z,93.15
2023-08-08T22:14:11.344Z,93.10
2023-08-08T22:16:51.147Z,93.22
2023-08-08T22:19:32.643Z,93.20
2023-08-08T22:22:12.189Z,93.04
2023-08-08T22:24:51.869Z,93.19
2023-08-08T22:27:31.752Z,92.81
2023-08-08T22:30:12.580Z,92.85
2023-08-08T22:32:52.246Z,92.84
2023-08-08T22:35:31.896Z,92.86
2023-08-08T22:38:11.565Z,92.64
2023-08-08T22:40:51.141Z,92.84
2023-08-08T22:43:30.813Z,92.82
2023-08-08T22:46:10.448Z,92.91
2023-08-08T22:48:51.627Z,92.89
2023-08-08T22:51:31.529Z,93.01
2023-08-08T22:54:13.368Z,92.60
2023-08-08T22:56:53.081Z,92.69
2023-08-08T22:59:32.613Z,92.65
2023-08-08T23:02:13.020Z,92.63
2023-08-08T23:04:52.636Z,92.61
2023-08-08T23:07:32.171Z,92.72
2023-08-08T23:10:11.851Z,92.88
2023-08-08T23:12:51.553Z,92.60
2023-08-08T23:15:31.172Z,92.90
2023-08-08T23:18:10.412Z,92.44
2023-08-08T23:20:53.075Z,92.79
2023-08-08T23:23:32.713Z,92.91
2023-08-08T23:26:13.009Z,93.18
2023-08-08T23:28:52.700Z,93.05
2023-08-08T23:31:33.914Z,93.27
2023-08-08T23:34:13.626Z,93.19
2023-08-08T23:36:53.098Z,93.06
2023-08-08T23:39:32.717Z,92.98
2023-08-08T23:42:12.765Z,92.94
2023-08-08T23:44:52.445Z,92.97
2023-08-08T23:47:33.353Z,93.06
2023-08-08T23:50:13.036Z,93.16
2023-08-08T23:52:52.747Z,93.24
2023-08-08T23:55:32.299Z,93.12
2023-08-08T23:58:12.103Z,93.41
